sensor_id;sensor_type;location;lat;lon;timestamp;P1;durP1;ratioP1;P2;durP2;ratioP2
33074;SDS011;19433;51.292;6.868;2023-04-06T00:00:35;8.10;;;7.17;;
33074;SDS011;19433;51.292;6.868;2023-04-06T00:03:02;8.37;;;6.80;;
33074;SDS011;19433;51.292;6.868;2023-04-06T00:05:27;9.23;;;7.57;;
33074;SDS011;19433;51.292;6.868;2023-04-06T00:07:55;9.33;;;8.33;;
33074;SDS011;19433;51.292;6.868;2023-04-06T00:10:21;8.70;;;7.80;;
33074;SDS011;19433;51.292;6.868;2023-04-06T00:12:46;8.73;;;7.40;;
33074;SDS011;19433;51.292;6.868;2023-04-06T00:15:11;10.37;;;8.00;;
33074;SDS011;19433;51.292;6.868;2023-04-06T00:17:37;9.50;;;8.53;;
33074;SDS011;19433;51.292;6.868;2023-04-06T00:20:02;8.80;;;7.90;;
33074;SDS011;19433;51.292;6.868;2023-04-06T00:22:28;10.00;;;8.30;;
33074;SDS011;19433;51.292;6.868;2023-04-06T00:24:53;9.30;;;8.10;;
33074;SDS011;19433;51.292;6.868;2023-04-06T00:27:18;9.10;;;8.20;;
33074;SDS011;19433;51.292;6.868;2023-04-06T00:29:44;10.00;;;8.00;;
33074;SDS011;19433;51.292;6.868;2023-04-06T00:32:10;10.40;;;7.90;;
33074;SDS011;19433;51.292;6.868;2023-04-06T00:34:35;10.13;;;9.00;;
33074;SDS011;19433;51.292;6.868;2023-04-06T00:37:01;10.93;;;9.00;;
33074;SDS011;19433;51.292;6.868;2023-04-06T00:39:26;12.07;;;8.80;;
33074;SDS011;19433;51.292;6.868;2023-04-06T00:41:52;11.20;;;9.30;;
33074;SDS011;19433;51.292;6.868;2023-04-06T00:44:18;10.90;;;9.80;;
33074;SDS011;19433;51.292;6.868;2023-04-06T00:46:44;13.60;;;9.60;;
33074;SDS011;19433;51.292;6.868;2023-04-06T00:49:10;10.70;;;9.53;;
33074;SDS011;19433;51.292;6.868;2023-04-06T00:51:35;12.97;;;9.60;;
33074;SDS011;19433;51.292;6.868;2023-04-06T00:54:00;12.03;;;9.43;;
33074;SDS011;19433;51.292;6.868;2023-04-06T00:56:26;10.93;;;8.53;;
33074;SDS011;19433;51.292;6.868;2023-04-06T00:58:52;11.67;;;9.23;;
33074;SDS011;19433;51.292;6.868;2023-04-06T01:01:17;12.00;;;9.97;;
33074;SDS011;19433;51.292;6.868;2023-04-06T01:03:43;10.10;;;8.97;;
33074;SDS011;19433;51.292;6.868;2023-04-06T01:06:12;13.57;;;10.00;;
33074;SDS011;19433;51.292;6.868;2023-04-06T01:08:37;11.90;;;9.73;;
33074;SDS011;19433;51.292;6.868;2023-04-06T01:11:03;9.77;;;8.70;;
33074;SDS011;19433;51.292;6.868;2023-04-06T01:13:28;10.43;;;9.30;;
33074;SDS011;19433;51.292;6.868;2023-04-06T01:15:53;13.40;;;9.20;;
33074;SDS011;19433;51.292;6.868;2023-04-06T01:18:24;11.27;;;10.10;;
33074;SDS011;19433;51.292;6.868;2023-04-06T01:24:13;11.67;;;9.53;;
33074;SDS011;19433;51.292;6.868;2023-04-06T02:07:41;12.23;;;11.00;;
33074;SDS011;19433;51.292;6.868;2023-04-06T02:10:11;11.63;;;10.00;;
33074;SDS011;19433;51.292;6.868;2023-04-06T02:12:37;14.40;;;11.60;;
33074;SDS011;19433;51.292;6.868;2023-04-06T02:15:03;10.20;;;9.20;;
33074;SDS011;19433;51.292;6.868;2023-04-06T02:17:28;10.80;;;9.67;;
33074;SDS011;19433;51.292;6.868;2023-04-06T02:19:54;11.30;;;9.00;;
33074;SDS011;19433;51.292;6.868;2023-04-06T02:22:19;11.50;;;9.93;;
33074;SDS011;19433;51.292;6.868;2023-04-06T02:24:45;13.03;;;10.07;;
33074;SDS011;19433;51.292;6.868;2023-04-06T02:27:11;12.97;;;9.83;;
33074;SDS011;19433;51.292;6.868;2023-04-06T02:29:37;11.00;;;9.83;;
33074;SDS011;19433;51.292;6.868;2023-04-06T02:32:02;10.20;;;9.20;;
33074;SDS011;19433;51.292;6.868;2023-04-06T02:34:28;10.80;;;9.70;;
33074;SDS011;19433;51.292;6.868;2023-04-06T02:36:54;12.33;;;9.87;;
33074;SDS011;19433;51.292;6.868;2023-04-06T02:39:20;10.57;;;9.47;;
33074;SDS011;19433;51.292;6.868;2023-04-06T02:41:45;11.50;;;9.30;;
33074;SDS011;19433;51.292;6.868;2023-04-06T02:44:11;11.70;;;9.47;;
33074;SDS011;19433;51.292;6.868;2023-04-06T02:46:36;9.70;;;8.80;;
33074;SDS011;19433;51.292;6.868;2023-04-06T02:49:01;9.23;;;8.27;;
33074;SDS011;19433;51.292;6.868;2023-04-06T02:51:27;9.53;;;8.53;;
33074;SDS011;19433;51.292;6.868;2023-04-06T02:53:53;9.10;;;8.10;;
33074;SDS011;19433;51.292;6.868;2023-04-06T02:56:18;10.20;;;8.10;;
33074;SDS011;19433;51.292;6.868;2023-04-06T02:58:45;11.10;;;8.53;;
33074;SDS011;19433;51.292;6.868;2023-04-06T03:25:01;9.63;;;8.63;;
33074;SDS011;19433;51.292;6.868;2023-04-06T05:31:42;14.20;;;8.20;;
33074;SDS011;19433;51.292;6.868;2023-04-06T05:34:08;10.73;;;7.27;;
33074;SDS011;19433;51.292;6.868;2023-04-06T05:36:34;10.03;;;8.17;;
33074;SDS011;19433;51.292;6.868;2023-04-06T05:39:00;8.13;;;7.33;;
33074;SDS011;19433;51.292;6.868;2023-04-06T05:41:25;9.17;;;7.70;;
33074;SDS011;19433;51.292;6.868;2023-04-06T05:43:51;8.60;;;7.27;;
33074;SDS011;19433;51.292;6.868;2023-04-06T05:46:16;8.07;;;7.20;;
33074;SDS011;19433;51.292;6.868;2023-04-06T05:48:42;9.33;;;8.43;;
33074;SDS011;19433;51.292;6.868;2023-04-06T05:51:07;11.03;;;7.73;;
33074;SDS011;19433;51.292;6.868;2023-04-06T05:53:32;8.30;;;6.97;;
33074;SDS011;19433;51.292;6.868;2023-04-06T05:56:01;9.17;;;6.83;;
33074;SDS011;19433;51.292;6.868;2023-04-06T05:58:27;8.97;;;8.03;;
33074;SDS011;19433;51.292;6.868;2023-04-06T06:01:01;8.73;;;7.50;;
33074;SDS011;19433;51.292;6.868;2023-04-06T06:03:28;12.20;;;8.37;;
33074;SDS011;19433;51.292;6.868;2023-04-06T06:05:58;8.73;;;7.43;;
33074;SDS011;19433;51.292;6.868;2023-04-06T06:08:25;9.60;;;7.50;;
33074;SDS011;19433;51.292;6.868;2023-04-06T06:10:50;8.80;;;7.50;;
33074;SDS011;19433;51.292;6.868;2023-04-06T06:13:16;6.90;;;6.30;;
33074;SDS011;19433;51.292;6.868;2023-04-06T06:15:41;7.87;;;7.10;;
33074;SDS011;19433;51.292;6.868;2023-04-06T06:18:06;7.73;;;7.00;;
33074;SDS011;19433;51.292;6.868;2023-04-06T06:20:32;8.17;;;7.47;;
33074;SDS011;19433;51.292;6.868;2023-04-06T06:22:57;12.40;;;7.77;;
33074;SDS011;19433;51.292;6.868;2023-04-06T06:25:22;8.50;;;7.60;;
33074;SDS011;19433;51.292;6.868;2023-04-06T06:27:49;7.73;;;7.03;;
33074;SDS011;19433;51.292;6.868;2023-04-06T06:30:14;7.67;;;6.97;;
33074;SDS011;19433;51.292;6.868;2023-04-06T06:32:40;9.90;;;7.57;;
33074;SDS011;19433;51.292;6.868;2023-04-06T06:35:05;7.73;;;6.97;;
33074;SDS011;19433;51.292;6.868;2023-04-06T06:37:31;9.93;;;8.80;;
33074;SDS011;19433;51.292;6.868;2023-04-06T06:39:56;7.03;;;6.40;;
33074;SDS011;19433;51.292;6.868;2023-04-06T06:42:21;9.03;;;8.13;;
33074;SDS011;19433;51.292;6.868;2023-04-06T06:44:47;8.53;;;6.60;;
33074;SDS011;19433;51.292;6.868;2023-04-06T06:47:12;8.37;;;7.00;;
33074;SDS011;19433;51.292;6.868;2023-04-06T06:49:37;7.37;;;6.30;;
33074;SDS011;19433;51.292;6.868;2023-04-06T06:52:03;7.47;;;6.77;;
33074;SDS011;19433;51.292;6.868;2023-04-06T06:54:28;6.53;;;5.93;;
33074;SDS011;19433;51.292;6.868;2023-04-06T06:56:53;8.40;;;7.03;;
33074;SDS011;19433;51.292;6.868;2023-04-06T06:59:19;9.07;;;7.73;;
33074;SDS011;19433;51.292;6.868;2023-04-06T07:01:45;8.90;;;7.47;;
33074;SDS011;19433;51.292;6.868;2023-04-06T07:04:10;9.77;;;7.40;;
33074;SDS011;19433;51.292;6.868;2023-04-06T07:06:36;9.03;;;7.33;;
33074;SDS011;19433;51.292;6.868;2023-04-06T07:09:01;7.23;;;6.30;;
33074;SDS011;19433;51.292;6.868;2023-04-06T07:11:28;8.00;;;7.10;;
33074;SDS011;19433;51.292;6.868;2023-04-06T07:13:54;9.13;;;7.67;;
33074;SDS011;19433;51.292;6.868;2023-04-06T07:16:19;7.00;;;6.20;;
33074;SDS011;19433;51.292;6.868;2023-04-06T07:18:44;7.40;;;6.70;;
33074;SDS011;19433;51.292;6.868;2023-04-06T07:21:10;7.33;;;6.60;;
33074;SDS011;19433;51.292;6.868;2023-04-06T07:23:35;9.57;;;7.00;;
33074;SDS011;19433;51.292;6.868;2023-04-06T07:26:00;8.57;;;7.70;;
33074;SDS011;19433;51.292;6.868;2023-04-06T07:28:26;7.57;;;6.90;;
33074;SDS011;19433;51.292;6.868;2023-04-06T07:30:51;7.97;;;7.27;;
33074;SDS011;19433;51.292;6.868;2023-04-06T07:33:16;8.30;;;7.47;;
33074;SDS011;19433;51.292;6.868;2023-04-06T07:35:42;7.40;;;6.70;;
33074;SDS011;19433;51.292;6.868;2023-04-06T07:38:07;8.43;;;7.63;;
33074;SDS011;19433;51.292;6.868;2023-04-06T07:40:33;7.40;;;6.80;;
33074;SDS011;19433;51.292;6.868;2023-04-06T07:42:58;8.23;;;7.30;;
33074;SDS011;19433;51.292;6.868;2023-04-06T07:45:23;7.70;;;6.90;;
33074;SDS011;19433;51.292;6.868;2023-04-06T07:47:49;8.23;;;7.30;;
33074;SDS011;19433;51.292;6.868;2023-04-06T07:50:14;7.87;;;7.17;;
33074;SDS011;19433;51.292;6.868;2023-04-06T07:52:40;9.97;;;8.20;;
33074;SDS011;19433;51.292;6.868;2023-04-06T07:55:06;8.57;;;7.77;;
33074;SDS011;19433;51.292;6.868;2023-04-06T07:57:31;7.97;;;7.27;;
33074;SDS011;19433;51.292;6.868;2023-04-06T07:59:57;8.97;;;7.53;;
33074;SDS011;19433;51.292;6.868;2023-04-06T08:02:22;9.40;;;8.50;;
33074;SDS011;19433;51.292;6.868;2023-04-06T08:04:47;9.00;;;8.20;;
33074;SDS011;19433;51.292;6.868;2023-04-06T08:07:13;9.30;;;8.50;;
33074;SDS011;19433;51.292;6.868;2023-04-06T08:09:38;8.57;;;7.67;;
33074;SDS011;19433;51.292;6.868;2023-04-06T08:12:03;8.17;;;7.40;;
33074;SDS011;19433;51.292;6.868;2023-04-06T08:14:29;8.80;;;8.10;;
33074;SDS011;19433;51.292;6.868;2023-04-06T08:16:54;8.40;;;7.67;;
33074;SDS011;19433;51.292;6.868;2023-04-06T08:19:20;9.73;;;8.83;;
33074;SDS011;19433;51.292;6.868;2023-04-06T08:21:45;9.70;;;8.53;;
33074;SDS011;19433;51.292;6.868;2023-04-06T08:24:12;8.23;;;7.53;;
33074;SDS011;19433;51.292;6.868;2023-04-06T08:26:37;9.43;;;8.53;;
33074;SDS011;19433;51.292;6.868;2023-04-06T08:29:03;9.90;;;8.97;;
33074;SDS011;19433;51.292;6.868;2023-04-06T08:31:29;10.60;;;8.40;;
33074;SDS011;19433;51.292;6.868;2023-04-06T08:33:55;9.27;;;8.57;;
33074;SDS011;19433;51.292;6.868;2023-04-06T08:36:20;11.90;;;8.83;;
33074;SDS011;19433;51.292;6.868;2023-04-06T08:38:48;8.90;;;8.10;;
33074;SDS011;19433;51.292;6.868;2023-04-06T08:41:14;9.37;;;8.50;;
33074;SDS011;19433;51.292;6.868;2023-04-06T08:46:09;9.70;;;8.90;;
33074;SDS011;19433;51.292;6.868;2023-04-06T08:48:36;8.73;;;7.93;;
33074;SDS011;19433;51.292;6.868;2023-04-06T08:51:03;8.80;;;8.00;;
33074;SDS011;19433;51.292;6.868;2023-04-06T08:53:28;9.47;;;8.67;;
33074;SDS011;19433;51.292;6.868;2023-04-06T08:55:54;9.93;;;8.93;;
33074;SDS011;19433;51.292;6.868;2023-04-06T08:58:22;11.53;;;8.87;;
33074;SDS011;19433;51.292;6.868;2023-04-06T09:00:48;11.77;;;9.33;;
33074;SDS011;19433;51.292;6.868;2023-04-06T09:03:15;9.30;;;8.33;;
33074;SDS011;19433;51.292;6.868;2023-04-06T09:05:42;10.30;;;9.30;;
33074;SDS011;19433;51.292;6.868;2023-04-06T09:08:09;10.17;;;9.27;;
33074;SDS011;19433;51.292;6.868;2023-04-06T09:10:39;10.00;;;9.10;;
33074;SDS011;19433;51.292;6.868;2023-04-06T09:13:06;10.90;;;8.57;;
33074;SDS011;19433;51.292;6.868;2023-04-06T09:15:32;10.00;;;9.20;;
33074;SDS011;19433;51.292;6.868;2023-04-06T09:17:58;10.47;;;9.30;;
33074;SDS011;19433;51.292;6.868;2023-04-06T09:20:24;11.80;;;10.70;;
33074;SDS011;19433;51.292;6.868;2023-04-06T09:22:51;11.97;;;10.53;;
33074;SDS011;19433;51.292;6.868;2023-04-06T09:25:20;11.53;;;10.30;;
33074;SDS011;19433;51.292;6.868;2023-04-06T09:28:00;12.20;;;10.37;;
33074;SDS011;19433;51.292;6.868;2023-04-06T09:30:26;13.43;;;11.00;;
33074;SDS011;19433;51.292;6.868;2023-04-06T09:32:52;11.43;;;10.33;;
33074;SDS011;19433;51.292;6.868;2023-04-06T09:35:20;12.10;;;11.00;;
33074;SDS011;19433;51.292;6.868;2023-04-06T09:37:46;11.93;;;10.70;;
33074;SDS011;19433;51.292;6.868;2023-04-06T09:40:13;11.20;;;10.30;;
33074;SDS011;19433;51.292;6.868;2023-04-06T09:42:40;12.80;;;11.70;;
33074;SDS011;19433;51.292;6.868;2023-04-06T09:45:07;14.17;;;12.70;;
33074;SDS011;19433;51.292;6.868;2023-04-06T09:47:32;13.07;;;11.80;;
33074;SDS011;19433;51.292;6.868;2023-04-06T09:50:00;13.90;;;12.50;;
33074;SDS011;19433;51.292;6.868;2023-04-06T09:52:32;13.50;;;12.10;;
33074;SDS011;19433;51.292;6.868;2023-04-06T09:55:02;14.20;;;12.90;;
33074;SDS011;19433;51.292;6.868;2023-04-06T09:57:35;14.30;;;13.00;;
33074;SDS011;19433;51.292;6.868;2023-04-06T10:00:07;13.43;;;12.13;;
33074;SDS011;19433;51.292;6.868;2023-04-06T10:02:56;15.50;;;11.67;;
33074;SDS011;19433;51.292;6.868;2023-04-06T10:08:11;15.17;;;11.43;;
33074;SDS011;19433;51.292;6.868;2023-04-06T10:10:38;12.20;;;11.00;;
33074;SDS011;19433;51.292;6.868;2023-04-06T10:13:04;13.23;;;11.93;;
33074;SDS011;19433;51.292;6.868;2023-04-06T10:15:30;13.83;;;11.83;;
33074;SDS011;19433;51.292;6.868;2023-04-06T10:17:56;13.40;;;11.93;;
33074;SDS011;19433;51.292;6.868;2023-04-06T10:23:01;12.63;;;11.43;;
33074;SDS011;19433;51.292;6.868;2023-04-06T10:25:54;13.47;;;11.63;;
33074;SDS011;19433;51.292;6.868;2023-04-06T10:28:21;13.97;;;12.57;;
33074;SDS011;19433;51.292;6.868;2023-04-06T10:30:48;14.40;;;13.00;;
33074;SDS011;19433;51.292;6.868;2023-04-06T10:35:39;13.90;;;11.40;;
33074;SDS011;19433;51.292;6.868;2023-04-06T10:38:04;13.13;;;12.03;;
33074;SDS011;19433;51.292;6.868;2023-04-06T10:40:30;14.57;;;12.30;;
33074;SDS011;19433;51.292;6.868;2023-04-06T10:43:11;13.20;;;11.97;;
33074;SDS011;19433;51.292;6.868;2023-04-06T10:45:38;13.77;;;12.47;;
33074;SDS011;19433;51.292;6.868;2023-04-06T10:48:17;13.03;;;11.83;;
33074;SDS011;19433;51.292;6.868;2023-04-06T10:50:44;14.27;;;12.60;;
33074;SDS011;19433;51.292;6.868;2023-04-06T10:53:19;14.73;;;13.33;;
33074;SDS011;19433;51.292;6.868;2023-04-06T10:55:54;15.50;;;13.63;;
33074;SDS011;19433;51.292;6.868;2023-04-06T10:58:20;16.07;;;14.47;;
33074;SDS011;19433;51.292;6.868;2023-04-06T11:00:50;18.43;;;13.27;;
33074;SDS011;19433;51.292;6.868;2023-04-06T11:03:16;15.63;;;13.37;;
33074;SDS011;19433;51.292;6.868;2023-04-06T11:05:48;14.43;;;12.77;;
33074;SDS011;19433;51.292;6.868;2023-04-06T11:08:36;14.20;;;12.37;;
33074;SDS011;19433;51.292;6.868;2023-04-06T11:11:06;15.73;;;12.53;;
33074;SDS011;19433;51.292;6.868;2023-04-06T11:13:44;15.27;;;12.80;;
33074;SDS011;19433;51.292;6.868;2023-04-06T11:16:14;13.33;;;12.03;;
33074;SDS011;19433;51.292;6.868;2023-04-06T11:21:16;15.33;;;13.83;;
33074;SDS011;19433;51.292;6.868;2023-04-06T11:23:42;14.33;;;12.70;;
33074;SDS011;19433;51.292;6.868;2023-04-06T11:26:11;14.13;;;12.80;;
33074;SDS011;19433;51.292;6.868;2023-04-06T11:28:38;15.77;;;13.70;;
33074;SDS011;19433;51.292;6.868;2023-04-06T11:31:05;15.20;;;13.60;;
33074;SDS011;19433;51.292;6.868;2023-04-06T11:33:35;16.43;;;14.67;;
33074;SDS011;19433;51.292;6.868;2023-04-06T11:36:01;14.83;;;13.43;;
33074;SDS011;19433;51.292;6.868;2023-04-06T11:38:26;14.90;;;13.50;;
33074;SDS011;19433;51.292;6.868;2023-04-06T11:40:52;14.90;;;13.47;;
33074;SDS011;19433;51.292;6.868;2023-04-06T11:43:25;16.23;;;13.90;;
33074;SDS011;19433;51.292;6.868;2023-04-06T11:45:51;16.50;;;14.80;;
33074;SDS011;19433;51.292;6.868;2023-04-06T11:48:25;15.57;;;13.73;;
33074;SDS011;19433;51.292;6.868;2023-04-06T11:50:54;15.90;;;14.30;;
33074;SDS011;19433;51.292;6.868;2023-04-06T11:53:25;16.37;;;14.13;;
33074;SDS011;19433;51.292;6.868;2023-04-06T11:55:51;17.00;;;14.20;;
33074;SDS011;19433;51.292;6.868;2023-04-06T11:58:16;15.90;;;14.20;;
33074;SDS011;19433;51.292;6.868;2023-04-06T12:00:43;21.20;;;13.57;;
33074;SDS011;19433;51.292;6.868;2023-04-06T12:03:10;17.00;;;13.70;;
33074;SDS011;19433;51.292;6.868;2023-04-06T12:05:37;16.10;;;14.50;;
33074;SDS011;19433;51.292;6.868;2023-04-06T12:08:03;15.87;;;14.20;;
33074;SDS011;19433;51.292;6.868;2023-04-06T12:10:28;18.37;;;15.40;;
33074;SDS011;19433;51.292;6.868;2023-04-06T12:12:53;16.70;;;13.93;;
33074;SDS011;19433;51.292;6.868;2023-04-06T12:15:19;15.00;;;13.60;;
33074;SDS011;19433;51.292;6.868;2023-04-06T12:17:44;16.13;;;14.43;;
33074;SDS011;19433;51.292;6.868;2023-04-06T12:20:10;15.13;;;13.70;;
33074;SDS011;19433;51.292;6.868;2023-04-06T12:22:35;14.30;;;12.87;;
33074;SDS011;19433;51.292;6.868;2023-04-06T12:25:01;15.57;;;14.00;;
33074;SDS011;19433;51.292;6.868;2023-04-06T12:27:26;15.93;;;14.10;;
33074;SDS011;19433;51.292;6.868;2023-04-06T12:29:52;15.17;;;13.53;;
33074;SDS011;19433;51.292;6.868;2023-04-06T12:32:18;15.60;;;13.97;;
33074;SDS011;19433;51.292;6.868;2023-04-06T12:34:44;13.67;;;12.30;;
33074;SDS011;19433;51.292;6.868;2023-04-06T12:37:09;12.83;;;11.57;;
33074;SDS011;19433;51.292;6.868;2023-04-06T12:39:34;13.63;;;12.23;;
33074;SDS011;19433;51.292;6.868;2023-04-06T12:42:00;14.13;;;12.60;;
33074;SDS011;19433;51.292;6.868;2023-04-06T12:44:27;14.67;;;12.43;;
33074;SDS011;19433;51.292;6.868;2023-04-06T12:46:52;13.87;;;12.57;;
33074;SDS011;19433;51.292;6.868;2023-04-06T12:49:18;11.87;;;10.83;;
33074;SDS011;19433;51.292;6.868;2023-04-06T12:51:44;14.70;;;11.63;;
33074;SDS011;19433;51.292;6.868;2023-04-06T12:54:10;13.67;;;12.07;;
33074;SDS011;19433;51.292;6.868;2023-04-06T12:56:36;13.50;;;12.07;;
33074;SDS011;19433;51.292;6.868;2023-04-06T12:59:02;14.80;;;11.47;;
33074;SDS011;19433;51.292;6.868;2023-04-06T13:01:27;13.03;;;11.63;;
33074;SDS011;19433;51.292;6.868;2023-04-06T13:03:53;14.07;;;11.20;;
33074;SDS011;19433;51.292;6.868;2023-04-06T13:06:18;14.17;;;11.33;;
33074;SDS011;19433;51.292;6.868;2023-04-06T13:08:44;13.13;;;11.80;;
33074;SDS011;19433;51.292;6.868;2023-04-06T13:11:09;13.40;;;12.10;;
33074;SDS011;19433;51.292;6.868;2023-04-06T13:13:35;11.77;;;10.57;;
33074;SDS011;19433;51.292;6.868;2023-04-06T13:16:01;12.90;;;11.13;;
33074;SDS011;19433;51.292;6.868;2023-04-06T13:18:29;11.70;;;10.47;;
33074;SDS011;19433;51.292;6.868;2023-04-06T13:20:56;11.33;;;10.23;;
33074;SDS011;19433;51.292;6.868;2023-04-06T13:23:22;11.17;;;10.17;;
33074;SDS011;19433;51.292;6.868;2023-04-06T13:25:48;15.30;;;10.80;;
33074;SDS011;19433;51.292;6.868;2023-04-06T13:28:21;11.30;;;10.00;;
33074;SDS011;19433;51.292;6.868;2023-04-06T13:30:47;11.50;;;10.33;;
33074;SDS011;19433;51.292;6.868;2023-04-06T13:33:14;10.37;;;9.23;;
33074;SDS011;19433;51.292;6.868;2023-04-06T13:35:39;10.70;;;8.70;;
33074;SDS011;19433;51.292;6.868;2023-04-06T13:38:05;12.70;;;8.70;;
33074;SDS011;19433;51.292;6.868;2023-04-06T13:40:30;10.37;;;9.30;;
33074;SDS011;19433;51.292;6.868;2023-04-06T13:42:56;10.50;;;9.40;;
33074;SDS011;19433;51.292;6.868;2023-04-06T13:45:21;10.57;;;9.57;;
33074;SDS011;19433;51.292;6.868;2023-04-06T13:47:46;9.50;;;8.50;;
33074;SDS011;19433;51.292;6.868;2023-04-06T13:50:12;10.10;;;9.17;;
33074;SDS011;19433;51.292;6.868;2023-04-06T13:52:37;9.60;;;8.70;;
33074;SDS011;19433;51.292;6.868;2023-04-06T13:55:02;11.17;;;10.20;;
33074;SDS011;19433;51.292;6.868;2023-04-06T13:57:28;9.20;;;8.30;;
33074;SDS011;19433;51.292;6.868;2023-04-06T13:59:54;10.30;;;9.33;;
33074;SDS011;19433;51.292;6.868;2023-04-06T14:02:20;8.33;;;7.63;;
33074;SDS011;19433;51.292;6.868;2023-04-06T14:04:47;9.50;;;8.70;;
33074;SDS011;19433;51.292;6.868;2023-04-06T14:07:12;8.13;;;7.47;;
33074;SDS011;19433;51.292;6.868;2023-04-06T14:09:38;8.50;;;7.80;;
33074;SDS011;19433;51.292;6.868;2023-04-06T14:12:03;8.53;;;7.80;;
33074;SDS011;19433;51.292;6.868;2023-04-06T14:14:28;9.67;;;8.53;;
33074;SDS011;19433;51.292;6.868;2023-04-06T14:16:54;9.80;;;8.80;;
33074;SDS011;19433;51.292;6.868;2023-04-06T14:19:19;9.13;;;7.57;;
33074;SDS011;19433;51.292;6.868;2023-04-06T14:21:46;8.67;;;7.97;;
33074;SDS011;19433;51.292;6.868;2023-04-06T14:24:12;8.23;;;7.53;;
33074;SDS011;19433;51.292;6.868;2023-04-06T14:26:38;8.13;;;7.43;;
33074;SDS011;19433;51.292;6.868;2023-04-06T14:29:04;9.07;;;8.17;;
33074;SDS011;19433;51.292;6.868;2023-04-06T14:31:31;9.20;;;8.30;;
33074;SDS011;19433;51.292;6.868;2023-04-06T14:33:56;8.60;;;7.80;;
33074;SDS011;19433;51.292;6.868;2023-04-06T14:36:22;7.57;;;6.30;;
33074;SDS011;19433;51.292;6.868;2023-04-06T14:38:48;7.70;;;7.10;;
33074;SDS011;19433;51.292;6.868;2023-04-06T14:41:17;7.10;;;6.57;;
33074;SDS011;19433;51.292;6.868;2023-04-06T14:43:43;8.13;;;7.43;;
33074;SDS011;19433;51.292;6.868;2023-04-06T14:46:09;8.40;;;7.67;;
33074;SDS011;19433;51.292;6.868;2023-04-06T14:48:35;8.23;;;7.60;;
33074;SDS011;19433;51.292;6.868;2023-04-06T14:51:00;7.47;;;6.77;;
33074;SDS011;19433;51.292;6.868;2023-04-06T14:53:26;7.37;;;6.63;;
33074;SDS011;19433;51.292;6.868;2023-04-06T14:55:51;7.73;;;6.93;;
33074;SDS011;19433;51.292;6.868;2023-04-06T14:58:17;8.93;;;8.13;;
33074;SDS011;19433;51.292;6.868;2023-04-06T15:00:43;9.30;;;8.40;;
33074;SDS011;19433;51.292;6.868;2023-04-06T15:03:09;9.83;;;8.77;;
33074;SDS011;19433;51.292;6.868;2023-04-06T15:05:34;9.43;;;8.43;;
33074;SDS011;19433;51.292;6.868;2023-04-06T15:08:00;9.33;;;8.40;;
33074;SDS011;19433;51.292;6.868;2023-04-06T15:10:26;10.13;;;9.20;;
33074;SDS011;19433;51.292;6.868;2023-04-06T15:12:51;9.53;;;8.63;;
33074;SDS011;19433;51.292;6.868;2023-04-06T15:15:16;10.63;;;9.10;;
33074;SDS011;19433;51.292;6.868;2023-04-06T15:17:42;11.10;;;10.00;;
33074;SDS011;19433;51.292;6.868;2023-04-06T15:20:07;11.40;;;9.30;;
33074;SDS011;19433;51.292;6.868;2023-04-06T15:22:32;11.00;;;9.90;;
33074;SDS011;19433;51.292;6.868;2023-04-06T15:24:58;11.33;;;9.63;;
33074;SDS011;19433;51.292;6.868;2023-04-06T15:27:23;9.50;;;8.20;;
33074;SDS011;19433;51.292;6.868;2023-04-06T15:29:48;9.00;;;8.10;;
33074;SDS011;19433;51.292;6.868;2023-04-06T15:32:14;8.90;;;8.00;;
33074;SDS011;19433;51.292;6.868;2023-04-06T15:34:39;8.93;;;8.00;;
33074;SDS011;19433;51.292;6.868;2023-04-06T15:37:05;10.10;;;8.60;;
33074;SDS011;19433;51.292;6.868;2023-04-06T15:39:30;8.43;;;7.07;;
33074;SDS011;19433;51.292;6.868;2023-04-06T15:41:56;8.30;;;7.50;;
33074;SDS011;19433;51.292;6.868;2023-04-06T15:44:22;8.80;;;7.10;;
33074;SDS011;19433;51.292;6.868;2023-04-06T15:46:47;8.87;;;8.17;;
33074;SDS011;19433;51.292;6.868;2023-04-06T15:49:13;7.77;;;7.07;;
33074;SDS011;19433;51.292;6.868;2023-04-06T15:51:38;8.50;;;7.30;;
33074;SDS011;19433;51.292;6.868;2023-04-06T15:54:04;10.60;;;8.53;;
33074;SDS011;19433;51.292;6.868;2023-04-06T15:56:30;7.60;;;6.90;;
33074;SDS011;19433;51.292;6.868;2023-04-06T15:58:56;8.67;;;7.73;;
33074;SDS011;19433;51.292;6.868;2023-04-06T16:01:22;8.80;;;7.87;;
33074;SDS011;19433;51.292;6.868;2023-04-06T16:03:47;8.57;;;7.77;;
33074;SDS011;19433;51.292;6.868;2023-04-06T16:06:12;9.73;;;8.77;;
33074;SDS011;19433;51.292;6.868;2023-04-06T16:08:38;10.43;;;8.50;;
33074;SDS011;19433;51.292;6.868;2023-04-06T16:11:04;9.20;;;8.40;;
33074;SDS011;19433;51.292;6.868;2023-04-06T16:13:29;9.13;;;8.23;;
33074;SDS011;19433;51.292;6.868;2023-04-06T16:15:55;12.73;;;9.50;;
33074;SDS011;19433;51.292;6.868;2023-04-06T16:18:20;9.83;;;8.87;;
33074;SDS011;19433;51.292;6.868;2023-04-06T16:20:46;10.10;;;9.07;;
33074;SDS011;19433;51.292;6.868;2023-04-06T16:23:11;10.00;;;9.10;;
33074;SDS011;19433;51.292;6.868;2023-04-06T16:25:37;10.90;;;9.43;;
33074;SDS011;19433;51.292;6.868;2023-04-06T16:28:02;11.43;;;9.50;;
33074;SDS011;19433;51.292;6.868;2023-04-06T16:30:27;10.13;;;9.13;;
33074;SDS011;19433;51.292;6.868;2023-04-06T16:32:55;10.50;;;9.50;;
33074;SDS011;19433;51.292;6.868;2023-04-06T16:35:20;11.50;;;10.30;;
33074;SDS011;19433;51.292;6.868;2023-04-06T16:37:47;10.90;;;9.90;;
33074;SDS011;19433;51.292;6.868;2023-04-06T16:40:12;13.20;;;11.10;;
33074;SDS011;19433;51.292;6.868;2023-04-06T16:42:39;11.30;;;10.03;;
33074;SDS011;19433;51.292;6.868;2023-04-06T16:45:06;12.37;;;11.17;;
33074;SDS011;19433;51.292;6.868;2023-04-06T16:47:32;13.40;;;10.27;;
33074;SDS011;19433;51.292;6.868;2023-04-06T16:49:57;12.70;;;11.40;;
33074;SDS011;19433;51.292;6.868;2023-04-06T16:52:22;11.97;;;10.77;;
33074;SDS011;19433;51.292;6.868;2023-04-06T16:54:48;14.00;;;11.20;;
33074;SDS011;19433;51.292;6.868;2023-04-06T16:57:13;11.10;;;10.10;;
33074;SDS011;19433;51.292;6.868;2023-04-06T16:59:39;13.50;;;9.50;;
33074;SDS011;19433;51.292;6.868;2023-04-06T17:02:04;12.63;;;9.90;;
33074;SDS011;19433;51.292;6.868;2023-04-06T17:04:30;10.90;;;8.83;;
33074;SDS011;19433;51.292;6.868;2023-04-06T17:06:55;10.27;;;9.27;;
33074;SDS011;19433;51.292;6.868;2023-04-06T17:09:20;12.10;;;9.40;;
33074;SDS011;19433;51.292;6.868;2023-04-06T17:11:45;9.93;;;8.07;;
33074;SDS011;19433;51.292;6.868;2023-04-06T17:14:11;10.90;;;9.93;;
33074;SDS011;19433;51.292;6.868;2023-04-06T17:16:36;12.43;;;9.50;;
33074;SDS011;19433;51.292;6.868;2023-04-06T17:19:01;12.23;;;11.07;;
33074;SDS011;19433;51.292;6.868;2023-04-06T17:21:26;11.63;;;10.43;;
33074;SDS011;19433;51.292;6.868;2023-04-06T17:23:52;12.60;;;11.40;;
33074;SDS011;19433;51.292;6.868;2023-04-06T17:26:18;12.33;;;10.90;;
33074;SDS011;19433;51.292;6.868;2023-04-06T17:28:43;14.07;;;12.60;;
33074;SDS011;19433;51.292;6.868;2023-04-06T17:31:10;12.40;;;11.20;;
33074;SDS011;19433;51.292;6.868;2023-04-06T17:33:36;13.17;;;11.93;;
33074;SDS011;19433;51.292;6.868;2023-04-06T17:36:05;13.07;;;11.87;;
33074;SDS011;19433;51.292;6.868;2023-04-06T17:38:33;15.37;;;12.47;;
33074;SDS011;19433;51.292;6.868;2023-04-06T17:40:59;13.87;;;12.27;;
33074;SDS011;19433;51.292;6.868;2023-04-06T17:43:25;17.27;;;15.20;;
33074;SDS011;19433;51.292;6.868;2023-04-06T17:45:51;13.87;;;12.47;;
33074;SDS011;19433;51.292;6.868;2023-04-06T17:48:16;13.23;;;12.03;;
33074;SDS011;19433;51.292;6.868;2023-04-06T17:50:42;17.27;;;12.87;;
33074;SDS011;19433;51.292;6.868;2023-04-06T17:53:07;17.67;;;13.93;;
33074;SDS011;19433;51.292;6.868;2023-04-06T17:55:36;13.93;;;12.57;;